sensor_id;sensor_type;location;lat;lon;timestamp;pressure;altitude;pressure_sealevel;temperature;humidity
31403;BME280;18039;52.188;21.024;2023-05-29T00:02:21;76430.72;;;-141.45;63.94
31403;BME280;18039;52.188;21.024;2023-05-29T00:04:49;76432.75;;;-141.45;64.38
31403;BME280;18039;52.188;21.024;2023-05-29T00:07:18;76436.81;;;-141.45;64.75
31403;BME280;18039;52.188;21.024;2023-05-29T00:09:45;76434.78;;;-141.45;65.02
31403;BME280;18039;52.188;21.024;2023-05-29T00:12:12;76434.78;;;-141.45;65.23
31403;BME280;18039;52.188;21.024;2023-05-29T00:14:40;76434.78;;;-141.45;65.48
31403;BME280;18039;52.188;21.024;2023-05-29T00:17:07;76438.84;;;-141.45;65.74
31403;BME280;18039;52.188;21.024;2023-05-29T00:19:35;76442.91;;;-141.45;65.96
31403;BME280;18039;52.188;21.024;2023-05-29T00:22:04;76444.91;;;-141.45;66.21
31403;BME280;18039;52.188;21.024;2023-05-29T00:24:31;76451.00;;;-141.45;66.64
31403;BME280;18039;52.188;21.024;2023-05-29T00:26:59;76455.06;;;-141.45;67.00
31403;BME280;18039;52.188;21.024;2023-05-29T00:29:26;76463.16;;;-141.45;67.14
31403;BME280;18039;52.188;21.024;2023-05-29T00:31:54;76475.31;;;-141.45;67.49
31403;BME280;18039;52.188;21.024;2023-05-29T00:34:22;76483.44;;;-141.45;67.54
31403;BME280;18039;52.188;21.024;2023-05-29T00:36:51;76479.38;;;-141.45;68.06
31403;BME280;18039;52.188;21.024;2023-05-29T00:39:20;76483.44;;;-141.45;68.32
31403;BME280;18039;52.188;21.024;2023-05-29T00:41:48;76483.44;;;-141.45;68.54
31403;BME280;18039;52.188;21.024;2023-05-29T00:44:18;76487.50;;;-141.45;68.93
31403;BME280;18039;52.188;21.024;2023-05-29T00:46:47;76497.63;;;-141.45;69.19
31403;BME280;18039;52.188;21.024;2023-05-29T00:49:16;76503.69;;;-141.45;69.63
31403;BME280;18039;52.188;21.024;2023-05-29T00:51:44;76507.75;;;-141.45;70.02
31403;BME280;18039;52.188;21.024;2023-05-29T00:54:13;76507.75;;;-141.45;70.25
31403;BME280;18039;52.188;21.024;2023-05-29T00:56:42;76511.81;;;-141.45;70.76
31403;BME280;18039;52.188;21.024;2023-05-29T00:59:11;76515.88;;;-141.45;71.00
31403;BME280;18039;52.188;21.024;2023-05-29T01:01:39;76519.91;;;-141.45;71.06
31403;BME280;18039;52.188;21.024;2023-05-29T01:04:07;76511.81;;;-141.45;71.23
31403;BME280;18039;52.188;21.024;2023-05-29T01:06:38;76511.81;;;-141.45;71.34
31403;BME280;18039;52.188;21.024;2023-05-29T01:09:06;76523.97;;;-141.45;71.75
31403;BME280;18039;52.188;21.024;2023-05-29T01:11:59;76528.03;;;-141.45;71.99
31403;BME280;18039;52.188;21.024;2023-05-29T01:14:43;76528.03;;;-141.45;72.17
31403;BME280;18039;52.188;21.024;2023-05-29T01:17:28;76530.06;;;-141.45;72.47
31403;BME280;18039;52.188;21.024;2023-05-29T01:20:08;76532.09;;;-141.45;72.74
31403;BME280;18039;52.188;21.024;2023-05-29T01:28:20;76544.25;;;-141.45;74.05
31403;BME280;18039;52.188;21.024;2023-05-29T01:30:49;76552.34;;;-141.45;74.45
31403;BME280;18039;52.188;21.024;2023-05-29T01:33:19;76560.47;;;-141.45;74.84
31403;BME280;18039;52.188;21.024;2023-05-29T01:35:50;76560.47;;;-141.45;75.21
31403;BME280;18039;52.188;21.024;2023-05-29T01:38:17;76568.56;;;-141.45;75.72
31403;BME280;18039;52.188;21.024;2023-05-29T01:40:44;76576.69;;;-141.45;75.90
31403;BME280;18039;52.188;21.024;2023-05-29T01:43:13;76576.69;;;-141.45;76.36
31403;BME280;18039;52.188;21.024;2023-05-29T01:45:41;76580.72;;;-141.45;76.90
31403;BME280;18039;52.188;21.024;2023-05-29T01:48:08;76582.75;;;-141.45;77.18
31403;BME280;18039;52.188;21.024;2023-05-29T01:50:37;76584.78;;;-141.45;77.91
31403;BME280;18039;52.188;21.024;2023-05-29T01:53:04;76592.91;;;-141.45;77.95
31403;BME280;18039;52.188;21.024;2023-05-29T01:55:31;76592.91;;;-141.45;78.22
31403;BME280;18039;52.188;21.024;2023-05-29T01:58:00;76596.94;;;-141.45;78.52
31403;BME280;18039;52.188;21.024;2023-05-29T02:00:29;76592.91;;;-141.45;78.82
31403;BME280;18039;52.188;21.024;2023-05-29T02:02:57;76592.91;;;-141.45;78.84
31403;BME280;18039;52.188;21.024;2023-05-29T02:05:25;76584.78;;;-141.45;78.81
31403;BME280;18039;52.188;21.024;2023-05-29T02:07:53;76592.91;;;-141.45;79.10
31403;BME280;18039;52.188;21.024;2023-05-29T02:10:20;76594.91;;;-141.45;79.37
31403;BME280;18039;52.188;21.024;2023-05-29T02:12:47;76594.91;;;-141.45;79.51
31403;BME280;18039;52.188;21.024;2023-05-29T02:15:15;76605.06;;;-141.45;79.76
31403;BME280;18039;52.188;21.024;2023-05-29T02:17:42;76601.00;;;-141.45;80.12
31403;BME280;18039;52.188;21.024;2023-05-29T02:20:11;76601.00;;;-141.45;80.39
31403;BME280;18039;52.188;21.024;2023-05-29T02:22:38;76596.94;;;-141.45;80.88
31403;BME280;18039;52.188;21.024;2023-05-29T02:25:06;76596.94;;;-141.45;81.14
31403;BME280;18039;52.188;21.024;2023-05-29T02:27:33;76596.94;;;-141.45;81.25
31403;BME280;18039;52.188;21.024;2023-05-29T02:30:00;76601.00;;;-141.45;81.25
31403;BME280;18039;52.188;21.024;2023-05-29T02:32:28;76598.97;;;-141.45;81.42
31403;BME280;18039;52.188;21.024;2023-05-29T02:34:57;76596.94;;;-141.45;81.37
31403;BME280;18039;52.188;21.024;2023-05-29T02:37:24;76601.00;;;-141.45;81.53
31403;BME280;18039;52.188;21.024;2023-05-29T02:39:52;76596.94;;;-141.45;81.67
31403;BME280;18039;52.188;21.024;2023-05-29T02:42:19;76603.03;;;-141.45;81.93
31403;BME280;18039;52.188;21.024;2023-05-29T02:44:47;76605.06;;;-141.45;82.18
31403;BME280;18039;52.188;21.024;2023-05-29T02:47:17;76605.06;;;-141.45;82.24
31403;BME280;18039;52.188;21.024;2023-05-29T02:49:44;76596.94;;;-141.45;82.51
31403;BME280;18039;52.188;21.024;2023-05-29T02:52:12;76596.94;;;-141.45;82.53
31403;BME280;18039;52.188;21.024;2023-05-29T02:54:39;76596.94;;;-141.45;82.69
31403;BME280;18039;52.188;21.024;2023-05-29T02:57:06;76592.91;;;-141.45;82.72
31403;BME280;18039;52.188;21.024;2023-05-29T02:59:35;76596.94;;;-141.45;82.75
31403;BME280;18039;52.188;21.024;2023-05-29T03:02:04;76594.91;;;-141.45;82.58
31403;BME280;18039;52.188;21.024;2023-05-29T03:04:31;76584.78;;;-141.45;82.55
31403;BME280;18039;52.188;21.024;2023-05-29T03:06:58;76584.78;;;-141.45;82.51
31403;BME280;18039;52.188;21.024;2023-05-29T03:09:25;76584.78;;;-141.45;82.40
31403;BME280;18039;52.188;21.024;2023-05-29T03:11:53;76584.78;;;-141.45;82.33
31403;BME280;18039;52.188;21.024;2023-05-29T03:14:21;76584.78;;;-141.45;82.13
31403;BME280;18039;52.188;21.024;2023-05-29T03:16:49;76580.72;;;-141.45;82.06
31403;BME280;18039;52.188;21.024;2023-05-29T03:19:18;76572.63;;;-141.45;81.97
31403;BME280;18039;52.188;21.024;2023-05-29T03:21:45;76568.56;;;-141.45;81.83
31403;BME280;18039;52.188;21.024;2023-05-29T03:24:12;76560.47;;;-141.45;81.72
31403;BME280;18039;52.188;21.024;2023-05-29T03:26:43;76560.47;;;-141.45;81.62
31403;BME280;18039;52.188;21.024;2023-05-29T03:29:10;76552.34;;;-141.45;81.61
31403;BME280;18039;52.188;21.024;2023-05-29T03:31:38;76542.22;;;-141.45;81.35
31403;BME280;18039;52.188;21.024;2023-05-29T03:34:05;76540.19;;;-141.45;81.22
31403;BME280;18039;52.188;21.024;2023-05-29T03:36:39;76528.03;;;-141.45;81.24
31403;BME280;18039;52.188;21.024;2023-05-29T03:39:07;76528.03;;;-141.45;80.89
31403;BME280;18039;52.188;21.024;2023-05-29T03:41:35;76519.91;;;-141.45;80.81
31403;BME280;18039;52.188;21.024;2023-05-29T03:44:03;76511.81;;;-141.45;80.66
31403;BME280;18039;52.188;21.024;2023-05-29T03:46:31;76499.66;;;-141.45;80.41
31403;BME280;18039;52.188;21.024;2023-05-29T03:48:59;76491.53;;;-141.45;79.86
31403;BME280;18039;52.188;21.024;2023-05-29T03:51:27;76479.38;;;-141.45;79.42
31403;BME280;18039;52.188;21.024;2023-05-29T03:53:55;76471.28;;;-141.45;79.10
31403;BME280;18039;52.188;21.024;2023-05-29T03:56:23;76459.09;;;-141.45;78.73
31403;BME280;18039;52.188;21.024;2023-05-29T03:58:50;76444.91;;;-141.45;77.87
31403;BME280;18039;52.188;21.024;2023-05-29T04:01:17;76430.72;;;-141.45;77.67
31403;BME280;18039;52.188;21.024;2023-05-29T04:03:44;76424.66;;;-141.45;77.51
31403;BME280;18039;52.188;21.024;2023-05-29T04:06:13;76416.53;;;-141.45;76.80
31403;BME280;18039;52.188;21.024;2023-05-29T04:08:41;76398.28;;;-141.45;76.45
31403;BME280;18039;52.188;21.024;2023-05-29T04:11:08;76390.19;;;-141.45;76.01
31403;BME280;18039;52.188;21.024;2023-05-29T04:13:35;76373.97;;;-141.45;75.84
31403;BME280;18039;52.188;21.024;2023-05-29T04:16:02;76357.75;;;-141.45;75.69
31403;BME280;18039;52.188;21.024;2023-05-29T04:18:29;76343.56;;;-141.45;75.46
31403;BME280;18039;52.188;21.024;2023-05-29T04:20:58;76323.31;;;-141.45;74.78
31403;BME280;18039;52.188;21.024;2023-05-29T04:23:26;76305.06;;;-141.45;74.25
31403;BME280;18039;52.188;21.024;2023-05-29T04:25:53;76284.78;;;-141.45;73.55
31403;BME280;18039;52.188;21.024;2023-05-29T04:28:25;76240.19;;;-141.45;72.63
31403;BME280;18039;52.188;21.024;2023-05-29T04:30:55;76207.78;;;-141.45;70.65
31403;BME280;18039;52.188;21.024;2023-05-29T04:33:25;76167.22;;;-141.45;69.67
31403;BME280;18039;52.188;21.024;2023-05-29T04:35:53;76130.75;;;-141.45;68.40
31403;BME280;18039;52.188;21.024;2023-05-29T04:38:20;76104.41;;;-141.45;67.53
31403;BME280;18039;52.188;21.024;2023-05-29T04:40:53;76078.06;;;-141.45;67.16
31403;BME280;18039;52.188;21.024;2023-05-29T04:43:25;76051.69;;;-141.45;64.85
31403;BME280;18039;52.188;21.024;2023-05-29T04:46:00;76021.31;;;-141.45;64.18
31403;BME280;18039;52.188;21.024;2023-05-29T04:48:28;75978.75;;;-141.45;63.19
31403;BME280;18039;52.188;21.024;2023-05-29T04:50:55;75919.97;;;-141.45;60.61
31403;BME280;18039;52.188;21.024;2023-05-29T04:53:24;75877.41;;;-141.45;54.36
31403;BME280;18039;52.188;21.024;2023-05-29T04:55:52;75838.91;;;-141.45;55.89
31403;BME280;18039;52.188;21.024;2023-05-29T04:58:20;75782.16;;;-141.45;55.07
31403;BME280;18039;52.188;21.024;2023-05-29T05:00:50;75725.41;;;-141.45;53.45
31403;BME280;18039;52.188;21.024;2023-05-29T05:03:17;75684.88;;;-141.45;52.94
31403;BME280;18039;52.188;21.024;2023-05-29T05:05:45;75640.28;;;-141.45;52.33
31403;BME280;18039;52.188;21.024;2023-05-29T05:08:14;75595.69;;;-141.45;51.46
31403;BME280;18039;52.188;21.024;2023-05-29T05:10:42;75559.22;;;-141.45;49.70
31403;BME280;18039;52.188;21.024;2023-05-29T05:13:09;75545.03;;;-141.45;49.14
31403;BME280;18039;52.188;21.024;2023-05-29T05:15:38;75541.00;;;-141.45;49.70
31403;BME280;18039;52.188;21.024;2023-05-29T05:18:05;75549.09;;;-141.45;49.35
31403;BME280;18039;52.188;21.024;2023-05-29T05:20:34;75587.59;;;-141.45;49.80
31403;BME280;18039;52.188;21.024;2023-05-29T05:23:02;75579.50;;;-141.45;50.39
31403;BME280;18039;52.188;21.024;2023-05-29T05:25:29;75579.50;;;-141.45;49.67
31403;BME280;18039;52.188;21.024;2023-05-29T05:27:56;75607.88;;;-141.45;49.63
31403;BME280;18039;52.188;21.024;2023-05-29T05:30:26;75636.22;;;-141.45;49.97
31403;BME280;18039;52.188;21.024;2023-05-29T05:32:53;75662.59;;;-141.45;49.24
31403;BME280;18039;52.188;21.024;2023-05-29T05:35:20;75690.94;;;-141.45;49.66
31403;BME280;18039;52.188;21.024;2023-05-29T05:37:47;75709.19;;;-141.45;50.20
31403;BME280;18039;52.188;21.024;2023-05-29T05:40:15;75725.41;;;-141.45;50.51
31403;BME280;18039;52.188;21.024;2023-05-29T05:42:58;75761.88;;;-141.45;52.28
31403;BME280;18039;52.188;21.024;2023-05-29T05:45:46;75765.94;;;-141.45;52.12
31403;BME280;18039;52.188;21.024;2023-05-29T05:48:14;75761.88;;;-141.45;51.48
31403;BME280;18039;52.188;21.024;2023-05-29T05:50:41;75763.91;;;-141.45;51.05
31403;BME280;18039;52.188;21.024;2023-05-29T05:53:08;75778.09;;;-141.45;49.60
31403;BME280;18039;52.188;21.024;2023-05-29T05:55:37;75794.31;;;-141.45;49.73
31403;BME280;18039;52.188;21.024;2023-05-29T05:58:04;75814.56;;;-141.45;50.91
31403;BME280;18039;52.188;21.024;2023-05-29T06:00:31;75810.53;;;-141.45;51.70
31403;BME280;18039;52.188;21.024;2023-05-29T06:02:58;75798.38;;;-141.45;51.68
31403;BME280;18039;52.188;21.024;2023-05-29T06:05:38;75788.22;;;-141.45;51.28
31403;BME280;18039;52.188;21.024;2023-05-29T06:08:08;75770.00;;;-141.45;51.42
31403;BME280;18039;52.188;21.024;2023-05-29T06:10:35;75757.81;;;-141.45;51.26
31403;BME280;18039;52.188;21.024;2023-05-29T06:13:02;75745.66;;;-141.45;51.07
31403;BME280;18039;52.188;21.024;2023-05-29T06:15:40;75735.53;;;-141.45;50.90
31403;BME280;18039;52.188;21.024;2023-05-29T06:18:08;75727.44;;;-141.45;50.62
31403;BME280;18039;52.188;21.024;2023-05-29T06:20:35;75721.34;;;-141.45;50.27
31403;BME280;18039;52.188;21.024;2023-05-29T06:23:03;75717.28;;;-141.45;49.62
31403;BME280;18039;52.188;21.024;2023-05-29T06:25:31;75725.41;;;-141.45;48.86
31403;BME280;18039;52.188;21.024;2023-05-29T06:28:02;75741.63;;;-141.45;48.41
31403;BME280;18039;52.188;21.024;2023-05-29T06:30:30;75749.72;;;-141.45;47.92
31403;BME280;18039;52.188;21.024;2023-05-29T06:32:57;75765.94;;;-141.45;47.67
31403;BME280;18039;52.188;21.024;2023-05-29T06:35:30;75739.59;;;-141.45;48.10
31403;BME280;18039;52.188;21.024;2023-05-29T06:37:58;75733.50;;;-141.45;47.08
31403;BME280;18039;52.188;21.024;2023-05-29T06:40:25;75729.47;;;-141.45;46.53
31403;BME280;18039;52.188;21.024;2023-05-29T06:42:53;75725.41;;;-141.45;46.08
31403;BME280;18039;52.188;21.024;2023-05-29T06:45:34;75721.34;;;-141.45;45.70
31403;BME280;18039;52.188;21.024;2023-05-29T06:48:02;75717.28;;;-141.45;45.42
31403;BME280;18039;52.188;21.024;2023-05-29T06:50:29;75711.22;;;-141.45;45.77
31403;BME280;18039;52.188;21.024;2023-05-29T06:53:03;75697.03;;;-141.45;45.54
31403;BME280;18039;52.188;21.024;2023-05-29T06:55:42;75684.88;;;-141.45;44.68
31403;BME280;18039;52.188;21.024;2023-05-29T06:58:11;75672.72;;;-141.45;44.43
31403;BME280;18039;52.188;21.024;2023-05-29T07:00:39;75668.66;;;-141.45;43.69
31403;BME280;18039;52.188;21.024;2023-05-29T07:03:26;75664.59;;;-141.45;42.82
31403;BME280;18039;52.188;21.024;2023-05-29T07:05:54;75672.72;;;-141.45;42.79
31403;BME280;18039;52.188;21.024;2023-05-29T07:08:22;75666.63;;;-141.45;43.11
31403;BME280;18039;52.188;21.024;2023-05-29T07:10:51;75660.56;;;-141.45;42.44
31403;BME280;18039;52.188;21.024;2023-05-29T07:13:20;75664.59;;;-141.45;42.35
31403;BME280;18039;52.188;21.024;2023-05-29T07:15:50;75668.66;;;-141.45;41.95
31403;BME280;18039;52.188;21.024;2023-05-29T07:18:23;75701.09;;;-141.45;40.74
31403;BME280;18039;52.188;21.024;2023-05-29T07:20:51;75701.09;;;-141.45;41.31
31403;BME280;18039;52.188;21.024;2023-05-29T07:23:20;75692.97;;;-141.45;41.49
31403;BME280;18039;52.188;21.024;2023-05-29T07:25:47;75682.84;;;-141.45;40.20
31403;BME280;18039;52.188;21.024;2023-05-29T07:28:15;75672.72;;;-141.45;40.50
31403;BME280;18039;52.188;21.024;2023-05-29T07:30:49;75652.44;;;-141.45;40.79
31403;BME280;18039;52.188;21.024;2023-05-29T07:33:16;75656.50;;;-141.45;40.51
31403;BME280;18039;52.188;21.024;2023-05-29T07:35:44;75660.56;;;-141.45;40.69
31403;BME280;18039;52.188;21.024;2023-05-29T07:38:11;75656.50;;;-141.45;40.32
31403;BME280;18039;52.188;21.024;2023-05-29T07:40:41;75650.41;;;-141.45;40.02
31403;BME280;18039;52.188;21.024;2023-05-29T07:43:08;75644.34;;;-141.45;38.00
31403;BME280;18039;52.188;21.024;2023-05-29T07:45:49;75656.50;;;-141.45;38.08
31403;BME280;18039;52.188;21.024;2023-05-29T07:48:16;75656.50;;;-141.45;38.79
31403;BME280;18039;52.188;21.024;2023-05-29T07:50:46;75662.59;;;-141.45;39.04
31403;BME280;18039;52.188;21.024;2023-05-29T07:53:15;75670.69;;;-141.45;39.17
31403;BME280;18039;52.188;21.024;2023-05-29T07:55:44;75660.56;;;-141.45;38.64
31403;BME280;18039;52.188;21.024;2023-05-29T07:58:11;75652.44;;;-141.45;38.42
31403;BME280;18039;52.188;21.024;2023-05-29T08:00:41;75634.22;;;-141.45;38.74
31403;BME280;18039;52.188;21.024;2023-05-29T08:03:08;75628.13;;;-141.45;37.19
31403;BME280;18039;52.188;21.024;2023-05-29T08:06:11;75620.03;;;-141.45;36.50
31403;BME280;18039;52.188;21.024;2023-05-29T08:08:38;75611.91;;;-141.45;36.19
31403;BME280;18039;52.188;21.024;2023-05-29T08:11:06;75603.81;;;-141.45;35.89
31403;BME280;18039;52.188;21.024;2023-05-29T08:13:33;75597.72;;;-141.45;36.06
31403;BME280;18039;52.188;21.024;2023-05-29T08:16:01;75585.56;;;-141.45;35.27
31403;BME280;18039;52.188;21.024;2023-05-29T08:18:30;75583.53;;;-141.45;35.85
31403;BME280;18039;52.188;21.024;2023-05-29T08:20:58;75575.44;;;-141.45;36.06
31403;BME280;18039;52.188;21.024;2023-05-29T08:23:26;75571.38;;;-141.45;35.92
31403;BME280;18039;52.188;21.024;2023-05-29T08:25:54;75575.44;;;-141.45;36.38
31403;BME280;18039;52.188;21.024;2023-05-29T08:28:21;75559.22;;;-141.45;36.71
31403;BME280;18039;52.188;21.024;2023-05-29T08:30:48;75547.06;;;-141.45;36.23
31403;BME280;18039;52.188;21.024;2023-05-29T08:33:15;75534.91;;;-141.45;36.55
31403;BME280;18039;52.188;21.024;2023-05-29T08:35:43;75524.78;;;-141.45;36.69
31403;BME280;18039;52.188;21.024;2023-05-29T08:38:10;75516.66;;;-141.45;36.48
31403;BME280;18039;52.188;21.024;2023-05-29T08:40:39;75510.59;;;-141.45;36.03
31403;BME280;18039;52.188;21.024;2023-05-29T08:43:12;75514.66;;;-141.45;36.14
31403;BME280;18039;52.188;21.024;2023-05-29T08:45:43;75518.69;;;-141.45;35.74
31403;BME280;18039;52.188;21.024;2023-05-29T08:48:11;75518.69;;;-141.45;35.13
31403;BME280;18039;52.188;21.024;2023-05-29T08:50:44;75526.81;;;-141.45;35.10
31403;BME280;18039;52.188;21.024;2023-05-29T08:53:14;75524.78;;;-141.45;35.39
31403;BME280;18039;52.188;21.024;2023-05-29T08:55:42;75526.81;;;-141.45;36.00
31403;BME280;18039;52.188;21.024;2023-05-29T08:58:11;75522.75;;;-141.45;36.94
31403;BME280;18039;52.188;21.024;2023-05-29T09:00:39;75514.66;;;-141.45;37.31
31403;BME280;18039;52.188;21.024;2023-05-29T09:03:08;75506.53;;;-141.45;36.07
31403;BME280;18039;52.188;21.024;2023-05-29T09:05:38;75502.50;;;-141.45;36.04
31403;BME280;18039;52.188;21.024;2023-05-29T09:08:11;75490.31;;;-141.45;35.75
31403;BME280;18039;52.188;21.024;2023-05-29T09:10:43;75480.19;;;-141.45;36.55
31403;BME280;18039;52.188;21.024;2023-05-29T09:13:11;75476.16;;;-141.45;35.36
31403;BME280;18039;52.188;21.024;2023-05-29T09:15:39;75482.22;;;-141.45;35.18
31403;BME280;18039;52.188;21.024;2023-05-29T09:18:11;75506.53;;;-141.45;35.45
31403;BME280;18039;52.188;21.024;2023-05-29T09:20:38;75506.53;;;-141.45;35.62
31403;BME280;18039;52.188;21.024;2023-05-29T09:23:09;75506.53;;;-141.45;35.39
31403;BME280;18039;52.188;21.024;2023-05-29T09:25:40;75490.31;;;-141.45;35.68
31403;BME280;18039;52.188;21.024;2023-05-29T09:28:11;75474.13;;;-141.45;36.42
31403;BME280;18039;52.188;21.024;2023-05-29T09:30:45;75474.13;;;-141.45;36.05
31403;BME280;18039;52.188;21.024;2023-05-29T09:33:16;75474.13;;;-141.45;35.75
31403;BME280;18039;52.188;21.024;2023-05-29T09:35:46;75470.06;;;-141.45;35.66
31403;BME280;18039;52.188;21.024;2023-05-29T09:38:16;75459.94;;;-141.45;35.16
31403;BME280;18039;52.188;21.024;2023-05-29T09:41:06;75451.81;;;-141.45;35.29
31403;BME280;18039;52.188;21.024;2023-05-29T09:43:33;75453.84;;;-141.45;34.90
31403;BME280;18039;52.188;21.024;2023-05-29T09:46:01;75439.66;;;-141.45;35.71
31403;BME280;18039;52.188;21.024;2023-05-29T09:48:29;75417.38;;;-141.45;36.61
31403;BME280;18039;52.188;21.024;2023-05-29T09:50:58;75401.16;;;-141.45;36.08
31403;BME280;18039;52.188;21.024;2023-05-29T09:53:27;75409.28;;;-141.45;34.75
31403;BME280;18039;52.188;21.024;2023-05-29T09:55:56;75403.19;;;-141.45;34.23
31403;BME280;18039;52.188;21.024;2023-05-29T09:58:28;75409.28;;;-141.45;34.28
31403;BME280;18039;52.188;21.024;2023-05-29T10:00:55;75409.28;;;-141.45;34.60
31403;BME280;18039;52.188;21.024;2023-05-29T10:03:25;75417.38;;;-141.45;34.27
31403;BME280;18039;52.188;21.024;2023-05-29T10:05:55;75429.53;;;-141.45;34.02
31403;BME280;18039;52.188;21.024;2023-05-29T10:08:25;75431.56;;;-141.45;34.31
31403;BME280;18039;52.188;21.024;2023-05-29T10:11:00;75421.44;;;-141.45;35.07
31403;BME280;18039;52.188;21.024;2023-05-29T10:13:40;75421.44;;;-141.45;35.96
31403;BME280;18039;52.188;21.024;2023-05-29T10:16:11;75405.22;;;-141.45;35.10
31403;BME280;18039;52.188;21.024;2023-05-29T10:18:50;75397.13;;;-141.45;34.36
31403;BME280;18039;52.188;21.024;2023-05-29T10:21:27;75397.13;;;-141.45;33.93
31403;BME280;18039;52.188;21.024;2023-05-29T10:23:56;75389.00;;;-141.45;34.09
31403;BME280;18039;52.188;21.024;2023-05-29T10:26:25;75380.91;;;-141.45;34.32
31403;BME280;18039;52.188;21.024;2023-05-29T10:29:05;75364.69;;;-141.45;34.05
31403;BME280;18039;52.188;21.024;2023-05-29T10:39:34;75340.38;;;-141.45;34.63
31403;BME280;18039;52.188;21.024;2023-05-29T10:42:02;75332.28;;;-141.45;33.85
31403;BME280;18039;52.188;21.024;2023-05-29T10:49:29;75305.94;;;-141.45;34.29
31403;BME280;18039;52.188;21.024;2023-05-29T10:51:58;75287.69;;;-141.45;34.30
31403;BME280;18039;52.188;21.024;2023-05-29T10:54:27;75279.59;;;-141.45;34.48
31403;BME280;18039;52.188;21.024;2023-05-29T10:57:00;75269.44;;;-141.45;33.96
31403;BME280;18039;52.188;21.024;2023-05-29T10:59:28;75235.00;;;-141.45;33.23
31403;BME280;18039;52.188;21.024;2023-05-29T11:01:56;75243.09;;;-141.45;33.40
31403;BME280;18039;52.188;21.024;2023-05-29T11:04:26;75253.25;;;-141.45;33.52
31403;BME280;18039;52.188;21.024;2023-05-29T11:06:54;75255.25;;;-141.45;33.46
31403;BME280;18039;52.188;21.024;2023-05-29T11:12:22;75228.94;;;-141.45;33.28
31403;BME280;18039;52.188;21.024;2023-05-29T11:15:03;75226.91;;;-141.45;33.39
31403;BME280;18039;52.188;21.024;2023-05-29T11:17:32;75216.78;;;-141.45;34.07
31403;BME280;18039;52.188;21.024;2023-05-29T11:20:04;75194.47;;;-141.45;34.35
31403;BME280;18039;52.188;21.024;2023-05-29T11:25:32;75089.13;;;-141.45;34.16
31403;BME280;18039;52.188;21.024;2023-05-29T11:28:02;75050.63;;;-141.45;33.78
31403;BME280;18039;52.188;21.024;2023-05-29T11:30:31;75020.22;;;-141.45;33.67
31403;BME280;18039;52.188;21.024;2023-05-29T11:33:01;75004.00;;;-141.45;33.30
31403;BME280;18039;52.188;21.024;2023-05-29T11:35:34;75016.16;;;-141.45;33.23
31403;BME280;18039;52.188;21.024;2023-05-29T11:38:03;75016.16;;;-141.45;32.99
31403;BME280;18039;52.188;21.024;2023-05-29T11:40:36;75010.09;;;-141.45;32.39
31403;BME280;18039;52.188;21.024;2023-05-29T11:43:04;75012.13;;;-141.45;32.53
31403;BME280;18039;52.188;21.024;2023-05-29T11:45:32;75044.53;;;-141.45;33.17
31403;BME280;18039;52.188;21.024;2023-05-29T11:48:03;75056.69;;;-141.45;32.68
31403;BME280;18039;52.188;21.024;2023-05-29T11:50:32;75064.81;;;-141.45;33.10
31403;BME280;18039;52.188;21.024;2023-05-29T11:53:00;75068.84;;;-141.45;33.58
31403;BME280;18039;52.188;21.024;2023-05-29T11:55:27;75066.81;;;-141.45;32.85
31403;BME280;18039;52.188;21.024;2023-05-29T11:58:00;75060.75;;;-141.45;33.31
31403;BME280;18039;52.188;21.024;2023-05-29T12:00:35;75040.47;;;-141.45;32.92
31403;BME280;18039;52.188;21.024;2023-05-29T12:03:05;75024.28;;;-141.45;32.56
31403;BME280;18039;52.188;21.024;2023-05-29T12:05:45;75032.38;;;-141.45;32.79
31403;BME280;18039;52.188;21.024;2023-05-29T12:08:14;75052.66;;;-141.45;32.39
31403;BME280;18039;52.188;21.024;2023-05-29T12:10:48;75085.06;;;-141.45;32.60
31403;BME280;18039;52.188;21.024;2023-05-29T12:13:18;75072.91;;;-141.45;33.15
31403;BME280;18039;52.188;21.024;2023-05-29T12:15:47;75072.91;;;-141.45;32.44
31403;BME280;18039;52.188;21.024;2023-05-29T12:18:16;75089.13;;;-141.45;32.44
31403;BME280;18039;52.188;21.024;2023-05-29T12:20:43;75085.06;;;-141.45;32.49
31403;BME280;18039;52.188;21.024;2023-05-29T12:23:11;75081.00;;;-141.45;32.70
31403;BME280;18039;52.188;21.024;2023-05-29T12:25:39;75064.81;;;-141.45;32.72
31403;BME280;18039;52.188;21.024;2023-05-29T12:28:07;75058.72;;;-141.45;32.96
31403;BME280;18039;52.188;21.024;2023-05-29T12:30:39;75054.66;;;-141.45;32.25
31403;BME280;18039;52.188;21.024;2023-05-29T12:33:07;75066.81;;;-141.45;31.88
31403;BME280;18039;52.188;21.024;2023-05-29T12:35:35;75048.59;;;-141.45;32.26
31403;BME280;18039;52.188;21.024;2023-05-29T12:38:05;75034.41;;;-141.45;31.62
31403;BME280;18039;52.188;21.024;2023-05-29T12:40:32;75012.13;;;-141.45;31.83
31403;BME280;18039;52.188;21.024;2023-05-29T12:43:07;74975.66;;;-141.45;31.94
31403;BME280;18039;52.188;21.024;2023-05-29T12:45:37;74975.66;;;-141.45;31.78
31403;BME280;18039;52.188;21.024;2023-05-29T12:48:06;74995.91;;;-141.45;31.49
31403;BME280;18039;52.188;21.024;2023-05-29T12:50:38;75012.13;;;-141.45;31.94
31403;BME280;18039;52.188;21.024;2023-05-29T12:53:07;75012.13;;;-141.45;32.32
31403;BME280;18039;52.188;21.024;2023-05-29T12:55:37;75004.00;;;-141.45;32.38
31403;BME280;18039;52.188;21.024;2023-05-29T12:58:08;75020.22;;;-141.45;32.45
31403;BME280;18039;52.188;21.024;2023-05-29T13:00:37;75036.44;;;-141.45;32.52
31403;BME280;18039;52.188;21.024;2023-05-29T13:03:05;75036.44;;;-141.45;32.97
31403;BME280;18039;52.188;21.024;2023-05-29T13:05:34;75024.28;;;-141.45;33.03
31403;BME280;18039;52.188;21.024;2023-05-29T13:08:04;75034.41;;;-141.45;33.51